Ocontofalls, Wisconsin
Current Conditions -  °F | °C
As of 11:35 AM on Tuesday 21 Oct 2014 (Local Time) from KOCQ Reporting Station
Broken Clouds Broken Clouds  
Wind Chill: 43°   Ceiling: 3200
Heat Index: 47°   Visibility: 10mi
Dew Point: 34°   Wind: 10mph
Humidity: 59%   Direction: 10°N
Pressure: 30.25"   Gusts: NA
Location:  44.8816°N, 88.1735°W
Report Text: KOCQ 211635Z AUTO 01009KT 10SM BKN032 09/01 A3025 RMK AO1 T00860009
Loading
Personal Weather Stations






























Interactive Weather Map New forecast layout! Learn more

10-Day Weather Forecast

Advertisements
Track Severe Weather on mobile